Time;durP1;ratioP1;P1;durP2;ratioP2;P2;SDS_P1;SDS_P2;PMS_P1;PMS_P2;Temp;Humidity;BMP_temperature;BMP_pressure;BME280_temperature;BME280_humidity;BME280_pressure;Samples;Min_cycle;Max_cycle;Signal;HPM_P1;HPM_P2
2023/09/14 00:00:29;;;;;;;0.28;0.28;;;14.00;99.90;;;;;;5123312;27;20114;-69
2023/09/14 00:02:55;;;;;;;0.10;0.10;;;14.00;99.90;;;;;;5130571;27;20115;-68
2023/09/14 00:05:21;;;;;;;0.40;0.40;;;14.00;99.90;;;;;;5100689;27;20504;-68
2023/09/14 00:07:46;;;;;;;0.00;0.00;;;14.00;99.90;;;;;;5121963;27;20036;-69
2023/09/14 00:10:12;;;;;;;0.17;0.17;;;14.00;99.90;;;;;;5108807;27;20084;-68
2023/09/14 00:12:38;;;;;;;0.10;0.10;;;14.00;99.90;;;;;;5125948;27;20036;-69
2023/09/14 00:15:04;;;;;;;0.00;0.00;;;13.90;99.90;;;;;;5120477;27;20081;-68
2023/09/14 00:17:30;;;;;;;0.08;0.08;;;14.00;99.90;;;;;;5108783;27;20450;-69
2023/09/14 00:19:55;;;;;;;0.30;0.30;;;14.00;99.90;;;;;;5119509;27;20071;-68
2023/09/14 00:22:21;;;;;;;0.00;0.00;;;13.90;99.90;;;;;;5125205;27;20043;-69
2023/09/14 00:24:46;;;;;;;0.20;0.20;;;13.90;99.90;;;;;;5103706;27;20039;-69
2023/09/14 00:27:12;;;;;;;0.00;0.00;;;13.90;99.90;;;;;;5120057;27;20775;-68
2023/09/14 00:29:38;;;;;;;0.10;0.10;;;13.90;99.90;;;;;;5124152;27;20031;-68
2023/09/14 00:32:03;;;;;;;0.10;0.10;;;13.90;99.90;;;;;;5122896;27;20084;-69
2023/09/14 00:34:29;;;;;;;0.00;0.00;;;13.90;99.90;;;;;;5104735;27;20059;-68
2023/09/14 00:36:55;;;;;;;0.05;0.05;;;13.80;99.90;;;;;;5124000;27;20451;-68
2023/09/14 00:39:20;;;;;;;0.10;0.10;;;13.80;99.90;;;;;;5124170;27;20524;-69
2023/09/14 00:41:46;;;;;;;0.00;0.00;;;13.80;99.90;;;;;;5098552;27;20082;-68
2023/09/14 00:44:11;;;;;;;0.00;0.00;;;13.90;99.90;;;;;;5122534;27;20040;-68
2023/09/14 00:46:37;;;;;;;1.15;0.68;;;13.80;99.90;;;;;;5117653;27;20039;-69
2023/09/14 00:49:04;;;;;;;1.38;0.95;;;13.80;99.90;;;;;;5122649;27;20418;-69
2023/09/14 00:51:29;;;;;;;0.00;0.00;;;13.80;99.90;;;;;;5106321;28;20482;-69
2023/09/14 00:53:58;;;;;;;0.00;0.00;;;13.70;99.90;;;;;;5121919;27;20048;-69
2023/09/14 00:56:26;;;;;;;0.00;0.00;;;13.70;99.90;;;;;;5128033;27;20047;-69
2023/09/14 00:58:53;;;;;;;0.65;0.65;;;13.70;99.90;;;;;;5117447;27;20043;-68
2023/09/14 01:01:19;;;;;;;3.80;1.73;;;13.70;99.90;;;;;;5125045;27;20043;-68
2023/09/14 01:03:45;;;;;;;0.00;0.00;;;13.60;99.90;;;;;;5123030;27;20044;-68
2023/09/14 01:06:11;;;;;;;0.73;0.65;;;13.50;99.90;;;;;;5124255;27;20121;-69
2023/09/14 01:08:37;;;;;;;0.00;0.00;;;13.50;99.90;;;;;;5114373;27;20051;-69
2023/09/14 01:11:03;;;;;;;0.10;0.10;;;13.50;99.90;;;;;;5104182;27;20039;-69
2023/09/14 01:13:45;;;;;;;0.00;0.00;;;13.40;99.90;;;;;;5122008;27;20047;-69
2023/09/14 01:16:18;;;;;;;0.13;0.13;;;13.40;99.90;;;;;;5122163;27;20035;-69
2023/09/14 01:19:13;;;;;;;0.10;0.10;;;13.30;99.90;;;;;;5129432;27;20058;-69
2023/09/14 01:21:56;;;;;;;0.15;0.15;;;13.20;99.90;;;;;;5120506;27;20471;-68
2023/09/14 01:24:46;;;;;;;0.00;0.00;;;13.20;99.90;;;;;;5120964;27;20055;-69
2023/09/14 01:27:12;;;;;;;0.00;0.00;;;13.20;99.90;;;;;;5122020;27;20036;-69
2023/09/14 01:29:40;;;;;;;0.13;0.13;;;13.10;99.90;;;;;;5123319;27;20395;-69
2023/09/14 01:32:06;;;;;;;0.10;0.10;;;13.00;99.90;;;;;;5114452;27;20043;-69
2023/09/14 01:34:32;;;;;;;0.10;0.10;;;13.00;99.90;;;;;;5123260;27;20051;-68
2023/09/14 01:37:03;;;;;;;1.48;0.50;;;12.90;99.90;;;;;;5120934;27;20090;-68
2023/09/14 01:39:31;;;;;;;1.17;0.50;;;12.90;99.90;;;;;;5118676;27;20067;-69
2023/09/14 01:41:58;;;;;;;0.00;0.00;;;12.90;99.90;;;;;;5124640;27;20502;-68
2023/09/14 01:44:25;;;;;;;0.03;0.03;;;12.90;99.90;;;;;;5121144;27;20130;-68
2023/09/14 01:46:51;;;;;;;0.00;0.00;;;12.80;99.90;;;;;;5123873;27;20047;-68
2023/09/14 01:49:17;;;;;;;0.10;0.10;;;12.80;99.90;;;;;;5121576;27;20125;-68
2023/09/14 01:51:42;;;;;;;0.20;0.20;;;12.70;99.90;;;;;;5122654;27;20114;-68
2023/09/14 01:54:08;;;;;;;0.20;0.20;;;12.70;99.90;;;;;;5120414;27;20039;-69
2023/09/14 01:56:34;;;;;;;0.28;0.25;;;12.70;99.90;;;;;;5103539;28;20052;-69
2023/09/14 01:58:59;;;;;;;0.00;0.00;;;12.60;99.90;;;;;;5123921;27;20062;-68
2023/09/14 02:01:25;;;;;;;0.00;0.00;;;12.60;99.90;;;;;;5101012;28;20051;-69
2023/09/14 02:03:50;;;;;;;0.50;0.30;;;12.60;99.90;;;;;;5123581;27;20047;-68
2023/09/14 02:06:16;;;;;;;0.22;0.22;;;12.60;99.90;;;;;;5121149;27;20096;-68
2023/09/14 02:08:42;;;;;;;0.10;0.10;;;12.50;99.90;;;;;;5119356;27;20421;-68
2023/09/14 02:11:07;;;;;;;0.20;0.20;;;12.50;99.90;;;;;;5129014;27;20046;-68
2023/09/14 02:13:34;;;;;;;0.10;0.10;;;12.50;99.90;;;;;;5121188;27;20096;-68
2023/09/14 02:16:00;;;;;;;0.10;0.10;;;12.40;99.90;;;;;;5096871;27;20483;-68
2023/09/14 02:18:26;;;;;;;0.00;0.00;;;12.40;99.90;;;;;;5121059;27;20044;-68
2023/09/14 02:20:51;;;;;;;0.00;0.00;;;12.40;99.90;;;;;;5117612;27;20035;-68
2023/09/14 02:23:18;;;;;;;0.10;0.10;;;12.40;99.90;;;;;;5129345;27;20051;-68
2023/09/14 02:25:44;;;;;;;0.30;0.30;;;12.40;99.90;;;;;;5123643;27;20043;-68
2023/09/14 02:28:10;;;;;;;0.10;0.10;;;12.40;99.90;;;;;;5123613;27;20050;-68
2023/09/14 02:30:39;;;;;;;0.00;0.00;;;12.40;99.90;;;;;;5114659;27;20508;-68
2023/09/14 02:33:06;;;;;;;0.35;0.35;;;12.30;99.90;;;;;;5120114;27;20058;-68
2023/09/14 02:35:32;;;;;;;26.40;0.85;;;12.30;99.90;;;;;;5119650;28;20035;-68
2023/09/14 02:37:57;;;;;;;0.00;0.00;;;12.30;99.90;;;;;;5125858;28;20049;-68
2023/09/14 02:40:23;;;;;;;0.57;0.57;;;12.30;99.90;;;;;;5122224;28;20065;-68
2023/09/14 02:42:48;;;;;;;0.00;0.00;;;12.30;99.90;;;;;;5102526;28;20083;-68
2023/09/14 02:45:14;;;;;;;0.00;0.00;;;12.20;99.90;;;;;;5116724;28;20049;-68
2023/09/14 02:47:40;;;;;;;0.00;0.00;;;12.20;99.90;;;;;;5122826;28;20043;-68
2023/09/14 02:50:05;;;;;;;0.00;0.00;;;12.10;99.90;;;;;;5116687;28;20051;-68
2023/09/14 02:52:31;;;;;;;0.52;0.52;;;12.10;99.90;;;;;;5119863;28;20042;-68
2023/09/14 02:54:59;;;;;;;0.05;0.05;;;12.10;99.90;;;;;;5122016;28;20110;-68
2023/09/14 02:57:24;;;;;;;0.10;0.10;;;12.10;99.90;;;;;;5123928;28;20478;-68
2023/09/14 02:59:54;;;;;;;0.20;0.20;;;12.10;99.90;;;;;;5103267;28;20050;-68
2023/09/14 03:02:20;;;;;;;0.63;0.63;;;12.10;99.90;;;;;;5120464;28;20052;-68
2023/09/14 03:04:45;;;;;;;0.00;0.00;;;12.00;99.90;;;;;;5122610;28;20533;-68
2023/09/14 03:07:11;;;;;;;0.20;0.20;;;12.00;99.90;;;;;;5125455;27;20104;-68
2023/09/14 03:09:37;;;;;;;0.30;0.30;;;12.00;99.90;;;;;;5127948;27;20386;-69
2023/09/14 03:12:02;;;;;;;1.27;0.63;;;12.00;99.90;;;;;;5126374;27;20043;-68
2023/09/14 03:14:28;;;;;;;0.00;0.00;;;12.00;99.90;;;;;;5129273;27;20508;-68
2023/09/14 03:16:53;;;;;;;0.00;0.00;;;11.90;99.90;;;;;;5122794;27;20039;-68
2023/09/14 03:19:19;;;;;;;0.10;0.10;;;12.00;99.90;;;;;;5127034;27;20085;-68
2023/09/14 03:21:45;;;;;;;0.40;0.40;;;12.00;99.90;;;;;;5122489;27;20044;-68
2023/09/14 03:24:10;;;;;;;0.45;0.40;;;12.10;99.90;;;;;;5108287;27;20122;-68
2023/09/14 03:26:36;;;;;;;0.10;0.10;;;12.10;99.90;;;;;;5115435;27;20071;-68
2023/09/14 03:29:01;;;;;;;2.30;2.15;;;12.00;99.90;;;;;;5123747;27;20461;-68
2023/09/14 03:31:28;;;;;;;0.00;0.00;;;12.00;99.90;;;;;;5124676;27;20047;-68
2023/09/14 03:33:54;;;;;;;0.00;0.00;;;12.00;99.90;;;;;;5116688;27;20063;-68
2023/09/14 03:36:20;;;;;;;0.05;0.05;;;11.90;99.90;;;;;;5124980;27;20118;-68
2023/09/14 03:38:46;;;;;;;0.00;0.00;;;11.90;99.90;;;;;;5124189;27;20096;-68
2023/09/14 03:41:12;;;;;;;0.20;0.20;;;11.90;99.90;;;;;;5119079;27;20406;-68
2023/09/14 03:43:42;;;;;;;0.32;0.32;;;11.90;99.90;;;;;;5128282;27;20043;-68
2023/09/14 03:46:08;;;;;;;0.00;0.00;;;11.90;99.90;;;;;;5105401;28;20074;-68
2023/09/14 03:48:34;;;;;;;0.20;0.20;;;11.80;99.90;;;;;;5124984;27;20043;-68
2023/09/14 03:51:00;;;;;;;0.00;0.00;;;11.80;99.90;;;;;;5126779;27;20031;-68
2023/09/14 03:53:27;;;;;;;0.10;0.10;;;11.90;99.90;;;;;;5123858;27;20056;-68
2023/09/14 03:55:57;;;;;;;0.10;0.10;;;11.80;99.90;;;;;;5126230;27;20050;-68
2023/09/14 03:58:23;;;;;;;0.10;0.10;;;11.80;99.90;;;;;;5121737;27;20051;-68
2023/09/14 04:00:49;;;;;;;0.30;0.30;;;11.80;99.90;;;;;;5125310;27;20035;-68
2023/09/14 04:03:17;;;;;;;0.30;0.30;;;11.80;99.90;;;;;;5126949;27;20042;-68
2023/09/14 04:05:44;;;;;;;0.20;0.20;;;11.70;99.90;;;;;;5127763;27;20066;-68
2023/09/14 04:08:09;;;;;;;0.47;0.30;;;11.70;99.90;;;;;;5123225;27;20040;-68
2023/09/14 04:10:39;;;;;;;0.10;0.10;;;11.70;99.90;;;;;;5122378;27;20063;-68
2023/09/14 04:13:40;;;;;;;0.00;0.00;;;11.70;99.90;;;;;;5125519;27;20096;-68
2023/09/14 04:16:06;;;;;;;0.00;0.00;;;11.80;99.90;;;;;;5088258;28;20058;-68
2023/09/14 04:18:38;;;;;;;0.00;0.00;;;11.80;99.90;;;;;;5113117;27;20044;-68
2023/09/14 04:21:05;;;;;;;0.00;0.00;;;11.80;99.90;;;;;;5123916;27;20067;-68
2023/09/14 04:23:31;;;;;;;0.10;0.10;;;11.80;99.90;;;;;;5122136;27;20047;-68
2023/09/14 04:25:57;;;;;;;0.52;0.52;;;11.80;99.90;;;;;;5121922;27;20043;-68
2023/09/14 04:28:22;;;;;;;0.70;0.65;;;11.80;99.90;;;;;;5104940;27;20054;-68
2023/09/14 04:30:54;;;;;;;0.10;0.10;;;11.80;99.90;;;;;;5123301;27;20378;-68
2023/09/14 04:33:20;;;;;;;0.10;0.10;;;11.80;99.90;;;;;;5104985;27;20101;-68
2023/09/14 04:35:46;;;;;;;0.00;0.00;;;11.80;99.90;;;;;;5124007;27;20050;-68
2023/09/14 04:38:12;;;;;;;0.00;0.00;;;11.70;99.90;;;;;;5123970;27;20432;-68
2023/09/14 04:40:43;;;;;;;0.10;0.10;;;11.70;99.90;;;;;;5125144;27;20080;-68
2023/09/14 04:43:10;;;;;;;0.00;0.00;;;11.70;99.90;;;;;;5122074;27;20031;-68
2023/09/14 04:45:35;;;;;;;0.60;0.60;;;11.80;99.90;;;;;;5105610;27;20417;-68
2023/09/14 04:48:01;;;;;;;0.63;0.63;;;11.80;99.90;;;;;;5126002;27;20040;-68
2023/09/14 04:50:27;;;;;;;0.05;0.05;;;11.80;99.90;;;;;;5119864;27;20043;-68
2023/09/14 04:52:53;;;;;;;0.10;0.10;;;11.80;99.90;;;;;;5125628;27;20043;-69
2023/09/14 04:55:19;;;;;;;0.08;0.08;;;11.70;99.90;;;;;;5126354;27;20050;-68
2023/09/14 04:57:44;;;;;;;0.08;0.08;;;11.70;99.90;;;;;;5124843;27;20063;-68
2023/09/14 05:00:11;;;;;;;0.10;0.10;;;11.80;99.90;;;;;;5126925;27;20035;-68
2023/09/14 05:02:38;;;;;;;0.00;0.00;;;11.70;99.90;;;;;;5123756;27;20905;-68
2023/09/14 05:05:06;;;;;;;0.25;0.25;;;11.70;99.90;;;;;;5105687;27;20043;-68
2023/09/14 05:07:32;;;;;;;0.00;0.00;;;11.80;99.90;;;;;;5125136;27;20398;-68
2023/09/14 05:09:57;;;;;;;1.20;0.45;;;11.80;99.90;;;;;;5116609;27;20043;-68
2023/09/14 05:12:23;;;;;;;0.00;0.00;;;11.80;99.90;;;;;;5120790;27;20039;-68
2023/09/14 05:14:48;;;;;;;0.05;0.05;;;11.80;99.90;;;;;;5118665;27;20043;-68
2023/09/14 05:17:14;;;;;;;0.43;0.43;;;11.80;99.90;;;;;;5123147;27;20031;-68
2023/09/14 05:19:41;;;;;;;0.10;0.10;;;11.80;99.90;;;;;;5125360;27;20039;-69
2023/09/14 05:22:07;;;;;;;0.45;0.45;;;11.80;99.90;;;;;;5122879;27;20508;-68
2023/09/14 05:24:32;;;;;;;0.00;0.00;;;11.80;99.90;;;;;;5118909;27;20063;-68
2023/09/14 05:26:59;;;;;;;0.15;0.15;;;11.80;99.90;;;;;;5106249;27;20047;-69
2023/09/14 05:29:25;;;;;;;0.00;0.00;;;11.80;99.90;;;;;;5097338;27;20055;-68
2023/09/14 05:31:50;;;;;;;0.00;0.00;;;11.80;99.90;;;;;;5121279;27;20078;-68
2023/09/14 05:34:16;;;;;;;0.30;0.30;;;11.80;99.90;;;;;;5103147;27;20059;-68
2023/09/14 05:36:42;;;;;;;0.00;0.00;;;11.80;99.90;;;;;;5130360;27;20092;-68
2023/09/14 05:39:08;;;;;;;0.08;0.08;;;11.80;99.90;;;;;;5106908;27;20039;-68
2023/09/14 05:41:34;;;;;;;0.00;0.00;;;11.90;99.90;;;;;;5122568;27;20039;-68
2023/09/14 05:44:00;;;;;;;0.00;0.00;;;11.90;99.90;;;;;;5117193;27;20061;-68
2023/09/14 05:46:26;;;;;;;0.20;0.20;;;11.80;99.90;;;;;;5123733;27;20046;-68
2023/09/14 05:48:52;;;;;;;0.00;0.00;;;11.80;99.90;;;;;;5120813;27;20066;-68
2023/09/14 05:51:17;;;;;;;0.00;0.00;;;11.90;99.90;;;;;;5119721;27;20045;-68
2023/09/14 05:53:43;;;;;;;0.08;0.08;;;11.90;99.90;;;;;;5123656;27;20096;-68
2023/09/14 05:56:08;;;;;;;0.00;0.00;;;11.90;99.90;;;;;;5119093;27;20942;-68
2023/09/14 05:58:34;;;;;;;0.00;0.00;;;11.90;99.90;;;;;;5106022;28;20054;-68
2023/09/14 06:01:04;;;;;;;0.10;0.10;;;12.00;99.90;;;;;;5124504;27;20066;-68
2023/09/14 06:03:30;;;;;;;0.20;0.20;;;12.00;99.90;;;;;;5124083;27;20051;-68
2023/09/14 06:05:56;;;;;;;0.00;0.00;;;12.10;99.90;;;;;;5118429;27;20051;-68
2023/09/14 06:08:21;;;;;;;0.10;0.10;;;12.20;99.90;;;;;;5100480;28;20070;-68
2023/09/14 06:10:47;;;;;;;0.10;0.10;;;12.30;99.90;;;;;;5128109;27;20040;-68
2023/09/14 06:13:13;;;;;;;0.10;0.10;;;12.30;99.90;;;;;;5120924;27;20051;-68
2023/09/14 06:15:38;;;;;;;0.00;0.00;;;12.40;99.90;;;;;;5099363;28;20050;-68
2023/09/14 06:18:04;;;;;;;0.00;0.00;;;12.40;99.90;;;;;;5103883;27;20563;-68
2023/09/14 06:20:29;;;;;;;0.20;0.20;;;12.40;99.90;;;;;;5121884;27;20376;-68
2023/09/14 06:22:55;;;;;;;0.00;0.00;;;12.50;99.90;;;;;;5129596;27;20268;-68
2023/09/14 06:25:21;;;;;;;0.00;0.00;;;12.50;99.90;;;;;;5121969;27;20043;-68
2023/09/14 06:27:46;;;;;;;0.20;0.20;;;12.60;99.90;;;;;;5124295;27;20122;-68
2023/09/14 06:30:12;;;;;;;0.00;0.00;;;12.70;99.90;;;;;;5103125;27;20083;-68
2023/09/14 06:32:37;;;;;;;0.00;0.00;;;12.70;99.90;;;;;;5118105;27;20138;-68
2023/09/14 06:35:04;;;;;;;0.00;0.00;;;12.80;99.90;;;;;;5124062;27;20049;-68
2023/09/14 06:37:30;;;;;;;0.10;0.10;;;12.90;99.90;;;;;;5117436;28;20386;-68
2023/09/14 06:39:56;;;;;;;0.47;0.40;;;12.90;99.90;;;;;;5125915;28;20105;-68
2023/09/14 06:42:22;;;;;;;0.00;0.00;;;13.00;99.90;;;;;;5109766;27;20036;-68
2023/09/14 06:44:47;;;;;;;0.10;0.10;;;13.10;99.90;;;;;;5112342;27;20474;-68
2023/09/14 06:47:13;;;;;;;0.03;0.03;;;13.20;99.90;;;;;;5121941;27;20470;-68
2023/09/14 06:49:38;;;;;;;0.00;0.00;;;13.20;99.90;;;;;;5124858;27;20498;-68
2023/09/14 06:52:04;;;;;;;0.20;0.15;;;13.30;99.90;;;;;;5129481;27;20163;-68
2023/09/14 06:54:30;;;;;;;0.00;0.00;;;13.30;99.90;;;;;;5128985;27;20042;-68
2023/09/14 06:56:56;;;;;;;0.10;0.10;;;13.30;99.90;;;;;;5127232;27;20043;-68
2023/09/14 06:59:21;;;;;;;0.00;0.00;;;13.40;99.90;;;;;;5112169;27;20043;-68
2023/09/14 07:01:47;;;;;;;0.00;0.00;;;13.40;99.90;;;;;;5130996;27;20050;-68
2023/09/14 07:04:12;;;;;;;0.10;0.10;;;13.50;99.90;;;;;;5133185;27;20426;-68
2023/09/14 07:06:39;;;;;;;0.10;0.10;;;13.50;99.90;;;;;;5108817;28;20047;-68
2023/09/14 07:09:06;;;;;;;0.00;0.00;;;13.60;99.90;;;;;;5111819;27;20055;-68
2023/09/14 07:11:32;;;;;;;0.00;0.00;;;13.70;99.90;;;;;;5110673;27;20058;-68
2023/09/14 07:13:58;;;;;;;0.70;0.70;;;13.80;99.90;;;;;;5129784;27;20047;-68
2023/09/14 07:16:23;;;;;;;0.00;0.00;;;13.70;99.90;;;;;;5124721;27;20127;-68
2023/09/14 07:18:49;;;;;;;0.00;0.00;;;13.70;99.90;;;;;;5109088;28;20052;-68
2023/09/14 07:21:15;;;;;;;0.10;0.10;;;13.70;99.90;;;;;;5110686;27;20043;-68
2023/09/14 07:23:41;;;;;;;0.00;0.00;;;13.70;99.90;;;;;;5107406;28;20046;-68
2023/09/14 07:26:07;;;;;;;0.05;0.05;;;13.70;99.90;;;;;;5127405;27;20122;-68
2023/09/14 07:28:33;;;;;;;0.00;0.00;;;13.70;99.90;;;;;;5122618;27;20536;-68
2023/09/14 07:31:04;;;;;;;0.20;0.20;;;13.70;99.90;;;;;;5114674;27;20047;-68
2023/09/14 07:33:29;;;;;;;0.00;0.00;;;13.80;99.90;;;;;;5127242;27;20059;-68
2023/09/14 07:35:55;;;;;;;0.00;0.00;;;13.90;99.90;;;;;;5126363;27;20130;-68
2023/09/14 07:38:21;;;;;;;0.00;0.00;;;14.00;99.90;;;;;;5128932;27;20069;-68
2023/09/14 07:40:48;;;;;;;0.43;0.43;;;14.00;99.90;;;;;;5129755;27;20123;-68
2023/09/14 07:43:14;;;;;;;0.00;0.00;;;14.00;99.90;;;;;;5129506;27;20104;-68
2023/09/14 07:45:40;;;;;;;0.45;0.45;;;14.10;99.90;;;;;;5109197;27;20070;-68
2023/09/14 07:48:07;;;;;;;0.00;0.00;;;14.20;99.90;;;;;;5136938;27;20255;-68
2023/09/14 07:50:39;;;;;;;0.10;0.10;;;14.20;99.90;;;;;;5128831;27;20039;-68
2023/09/14 07:53:09;;;;;;;0.00;0.00;;;14.30;99.90;;;;;;5123495;27;20051;-68
2023/09/14 07:55:35;;;;;;;0.00;0.00;;;14.40;99.90;;;;;;5129710;27;20048;-68
2023/09/14 07:58:00;;;;;;;0.00;0.00;;;14.40;99.90;;;;;;5111559;27;20487;-68
2023/09/14 08:00:26;;;;;;;0.00;0.00;;;14.40;99.90;;;;;;5125660;27;20078;-68
2023/09/14 08:02:53;;;;;;;0.00;0.00;;;14.40;99.90;;;;;;5124366;27;20039;-68
2023/09/14 08:05:18;;;;;;;0.00;0.00;;;14.40;99.90;;;;;;5124377;27;20052;-68
2023/09/14 08:07:45;;;;;;;0.13;0.13;;;14.40;99.90;;;;;;5123710;27;20040;-68
2023/09/14 08:10:10;;;;;;;0.38;0.38;;;14.50;99.90;;;;;;5122784;27;20040;-68
2023/09/14 08:12:36;;;;;;;0.00;0.00;;;14.50;99.90;;;;;;5123542;27;20055;-68
2023/09/14 08:15:06;;;;;;;0.00;0.00;;;14.60;99.90;;;;;;5126407;27;20039;-68
2023/09/14 08:17:31;;;;;;;0.00;0.00;;;14.70;99.90;;;;;;5106879;27;20058;-68
2023/09/14 08:19:57;;;;;;;0.00;0.00;;;14.80;99.90;;;;;;5108223;27;20043;-69
2023/09/14 08:22:23;;;;;;;0.00;0.00;;;14.80;99.90;;;;;;5116598;27;20130;-69
2023/09/14 08:24:52;;;;;;;0.00;0.00;;;15.00;99.90;;;;;;5107688;27;20054;-68
2023/09/14 08:27:18;;;;;;;0.00;0.00;;;15.10;99.90;;;;;;5124265;27;20130;-69
2023/09/14 08:29:44;;;;;;;0.10;0.10;;;15.20;99.90;;;;;;5123058;27;20122;-69
2023/09/14 08:32:13;;;;;;;0.00;0.00;;;15.30;99.90;;;;;;5122558;27;20069;-68
2023/09/14 08:34:39;;;;;;;1.08;0.75;;;15.40;99.90;;;;;;5106085;28;20694;-69
2023/09/14 08:37:09;;;;;;;0.00;0.00;;;15.50;99.90;;;;;;5122857;27;20134;-69
2023/09/14 08:39:36;;;;;;;0.00;0.00;;;15.60;99.90;;;;;;5124578;27;20081;-69
2023/09/14 08:42:01;;;;;;;0.45;0.45;;;15.60;99.90;;;;;;5125454;27;20043;-68
2023/09/14 08:44:30;;;;;;;0.10;0.10;;;15.60;99.90;;;;;;5105030;27;20047;-69
2023/09/14 08:46:57;;;;;;;0.00;0.00;;;15.70;99.90;;;;;;5102754;27;20394;-69
2023/09/14 08:49:24;;;;;;;0.00;0.00;;;15.70;99.90;;;;;;5125749;27;20135;-68
2023/09/14 08:51:51;;;;;;;0.20;0.20;;;15.80;99.90;;;;;;5118185;27;20054;-68
2023/09/14 08:54:21;;;;;;;0.00;0.00;;;16.00;99.90;;;;;;5105834;27;20064;-69
2023/09/14 08:56:49;;;;;;;0.00;0.00;;;16.40;99.90;;;;;;5118879;27;20036;-69
2023/09/14 08:59:16;;;;;;;0.20;0.20;;;16.70;99.90;;;;;;5123395;27;20043;-69
2023/09/14 09:01:44;;;;;;;0.10;0.10;;;17.20;99.90;;;;;;5107658;27;20046;-69
2023/09/14 09:04:10;;;;;;;0.00;0.00;;;17.30;99.90;;;;;;5126525;27;20122;-68
2023/09/14 09:06:37;;;;;;;0.38;0.38;;;17.60;99.90;;;;;;5121555;27;20161;-68
2023/09/14 09:09:04;;;;;;;0.00;0.00;;;17.60;99.90;;;;;;5127074;27;20058;-69
2023/09/14 09:11:31;;;;;;;0.10;0.10;;;17.80;99.90;;;;;;5125364;27;20043;-68
2023/09/14 09:13:57;;;;;;;0.00;0.00;;;17.80;99.90;;;;;;5119886;27;20059;-68
2023/09/14 09:16:22;;;;;;;0.00;0.00;;;18.10;99.90;;;;;;5125888;27;20130;-69
2023/09/14 09:19:05;;;;;;;0.00;0.00;;;18.30;99.90;;;;;;5125428;27;20052;-69
2023/09/14 09:21:33;;;;;;;0.00;0.00;;;18.30;99.90;;;;;;5121271;27;20036;-68
2023/09/14 09:24:01;;;;;;;0.00;0.00;;;18.50;99.90;;;;;;5121466;27;20028;-69
2023/09/14 09:26:33;;;;;;;0.15;0.15;;;18.70;99.90;;;;;;5117457;27;20112;-69
2023/09/14 09:28:59;;;;;;;0.75;0.75;;;19.00;99.90;;;;;;5124789;27;20046;-68
2023/09/14 09:31:44;;;;;;;0.00;0.00;;;19.40;99.90;;;;;;5121583;27;20039;-69
2023/09/14 09:34:12;;;;;;;0.25;0.25;;;19.90;99.90;;;;;;5122353;27;20808;-68
2023/09/14 09:36:38;;;;;;;0.30;0.30;;;20.20;99.90;;;;;;5103723;28;20531;-69
2023/09/14 09:39:05;;;;;;;0.00;0.00;;;20.20;99.90;;;;;;5121952;27;20479;-69
2023/09/14 09:41:35;;;;;;;0.17;0.10;;;20.20;99.90;;;;;;5104932;27;20050;-69
2023/09/14 09:44:09;;;;;;;2.22;0.30;;;20.30;99.90;;;;;;5122737;27;20104;-69
2023/09/14 09:46:35;;;;;;;0.00;0.00;;;20.40;99.90;;;;;;5123369;27;20475;-69
2023/09/14 09:49:14;;;;;;;0.00;0.00;;;20.40;99.90;;;;;;5119939;27;20047;-69
2023/09/14 09:51:40;;;;;;;0.20;0.20;;;20.20;99.90;;;;;;5119713;27;20036;-69
2023/09/14 09:54:07;;;;;;;0.52;0.52;;;19.90;99.90;;;;;;5124008;27;20509;-69
2023/09/14 09:56:35;;;;;;;0.00;0.00;;;19.60;99.90;;;;;;5115919;27;20479;-69
2023/09/14 09:59:09;;;;;;;0.08;0.08;;;19.40;99.90;;;;;;5121650;27;20031;-69
2023/09/14 10:01:40;;;;;;;0.00;0.00;;;19.30;99.90;;;;;;5121975;27;20054;-69
2023/09/14 10:04:10;;;;;;;0.00;0.00;;;19.20;99.90;;;;;;5118537;27;20039;-69
2023/09/14 10:06:37;;;;;;;0.05;0.05;;;19.30;99.90;;;;;;5128376;27;20046;-68
2023/09/14 10:09:06;;;;;;;0.10;0.10;;;19.50;99.90;;;;;;5115400;27;20043;-69
2023/09/14 10:11:33;;;;;;;0.20;0.20;;;19.70;99.90;;;;;;5121288;27;20443;-69
2023/09/14 10:14:02;;;;;;;0.00;0.00;;;19.70;99.90;;;;;;5121969;27;20395;-69
2023/09/14 10:16:30;;;;;;;0.00;0.00;;;19.70;99.90;;;;;;5127345;27;20091;-69
2023/09/14 10:18:57;;;;;;;0.20;0.20;;;19.80;99.90;;;;;;5124456;27;20199;-69
2023/09/14 10:21:26;;;;;;;2.03;0.50;;;19.90;99.90;;;;;;5121291;27;20041;-69
2023/09/14 10:23:53;;;;;;;1.73;0.45;;;20.00;99.90;;;;;;5101255;28;20051;-69
2023/09/14 10:26:19;;;;;;;0.00;0.00;;;19.90;99.90;;;;;;5124044;27;20050;-69
2023/09/14 10:28:46;;;;;;;0.00;0.00;;;20.00;99.90;;;;;;5121092;27;20122;-69
2023/09/14 10:31:13;;;;;;;0.00;0.00;;;20.20;99.90;;;;;;5102263;28;20130;-69
2023/09/14 10:33:44;;;;;;;0.00;0.00;;;20.20;99.90;;;;;;5093853;28;20056;-69
2023/09/14 10:36:11;;;;;;;0.00;0.00;;;20.40;99.90;;;;;;5096598;28;20048;-69
2023/09/14 10:38:42;;;;;;;0.00;0.00;;;20.40;99.90;;;;;;5095062;28;20054;-69
2023/09/14 10:41:09;;;;;;;0.00;0.00;;;20.60;99.90;;;;;;5083569;28;20936;-69
2023/09/14 10:43:34;;;;;;;0.00;0.00;;;20.80;99.90;;;;;;5085791;28;20048;-69
2023/09/14 10:46:02;;;;;;;0.20;0.20;;;20.80;99.90;;;;;;5101501;28;20062;-69
2023/09/14 10:48:29;;;;;;;0.00;0.00;;;20.80;99.90;;;;;;5089080;28;20049;-69
2023/09/14 10:50:58;;;;;;;1.38;1.00;;;20.60;99.90;;;;;;5087857;28;20071;-68
2023/09/14 10:53:24;;;;;;;0.00;0.00;;;20.50;99.90;;;;;;5081560;28;20039;-69
2023/09/14 10:55:50;;;;;;;0.00;0.00;;;20.70;99.90;;;;;;5102213;28;20048;-69
2023/09/14 10:58:16;;;;;;;2.72;0.47;;;20.80;99.90;;;;;;5089159;28;20158;-69
2023/09/14 11:00:42;;;;;;;0.22;0.22;;;21.00;99.90;;;;;;5106074;28;20150;-69
2023/09/14 11:03:09;;;;;;;0.00;0.00;;;20.90;99.90;;;;;;5100247;28;20368;-68
2023/09/14 11:05:48;;;;;;;0.00;0.00;;;20.70;99.90;;;;;;5087671;28;20059;-69
2023/09/14 11:08:14;;;;;;;0.38;0.20;;;20.50;99.90;;;;;;5092774;28;20395;-69
2023/09/14 11:11:00;;;;;;;0.00;0.00;;;20.70;99.90;;;;;;5099996;28;20385;-69
2023/09/14 11:13:29;;;;;;;0.00;0.00;;;20.50;99.90;;;;;;5072901;28;20053;-69
2023/09/14 11:16:03;;;;;;;0.00;0.00;;;21.00;99.90;;;;;;5086666;28;20644;-69
2023/09/14 11:18:35;;;;;;;0.00;0.00;;;21.20;99.90;;;;;;5096365;28;20151;-69
2023/09/14 11:21:01;;;;;;;0.00;0.00;;;21.60;99.90;;;;;;5091668;28;20480;-69
2023/09/14 11:23:38;;;;;;;0.00;0.00;;;21.70;99.90;;;;;;5100316;28;20281;-69
2023/09/14 11:26:03;;;;;;;0.00;0.00;;;21.80;99.90;;;;;;5081562;28;20465;-69
2023/09/14 11:28:31;;;;;;;0.00;0.00;;;22.00;99.90;;;;;;5094191;28;20097;-69
2023/09/14 11:30:58;;;;;;;0.00;0.00;;;21.50;99.90;;;;;;5103637;28;20119;-68
2023/09/14 11:33:24;;;;;;;0.43;0.43;;;21.00;99.90;;;;;;5102482;27;20124;-69
2023/09/14 11:35:52;;;;;;;0.10;0.10;;;21.30;99.90;;;;;;5123887;27;20139;-69
2023/09/14 11:38:17;;;;;;;0.00;0.00;;;21.20;99.90;;;;;;5105950;27;20051;-69
2023/09/14 11:40:43;;;;;;;0.47;0.28;;;21.60;99.90;;;;;;5130241;27;20084;-69
2023/09/14 11:43:20;;;;;;;0.00;0.00;;;21.90;99.90;;;;;;5123943;27;20088;-68
2023/09/14 11:45:46;;;;;;;0.00;0.00;;;22.20;99.90;;;;;;5124159;27;20122;-69
2023/09/14 11:48:13;;;;;;;14.60;0.65;;;22.70;99.90;;;;;;5106337;27;20555;-69
2023/09/14 11:50:43;;;;;;;0.93;0.90;;;22.90;99.90;;;;;;5128000;27;20074;-69
2023/09/14 11:53:10;;;;;;;0.40;0.40;;;22.60;99.90;;;;;;5105541;28;20043;-69
2023/09/14 11:55:39;;;;;;;0.22;0.10;;;21.90;99.90;;;;;;5123561;27;20040;-69
2023/09/14 11:58:05;;;;;;;0.00;0.00;;;21.40;99.90;;;;;;5103523;28;20052;-69
2023/09/14 12:00:53;;;;;;;0.00;0.00;;;21.30;99.90;;;;;;5123226;27;20050;-69
2023/09/14 12:03:19;;;;;;;1.40;0.30;;;21.90;99.90;;;;;;5104856;28;20043;-69
2023/09/14 12:05:47;;;;;;;0.00;0.00;;;22.10;99.90;;;;;;5121450;27;20040;-69
2023/09/14 12:08:17;;;;;;;0.03;0.00;;;22.20;99.90;;;;;;5124250;27;20036;-69
2023/09/14 12:10:44;;;;;;;0.00;0.00;;;22.10;99.90;;;;;;5103363;27;20055;-68
2023/09/14 12:13:15;;;;;;;0.00;0.00;;;21.40;99.90;;;;;;5129477;27;20044;-69
2023/09/14 12:15:46;;;;;;;0.00;0.00;;;21.70;99.90;;;;;;5105396;27;20074;-69
2023/09/14 12:18:13;;;;;;;0.00;0.00;;;22.40;99.90;;;;;;5124130;27;20043;-69
2023/09/14 12:20:43;;;;;;;0.25;0.25;;;22.70;99.90;;;;;;5121470;27;20076;-69
2023/09/14 12:23:10;;;;;;;0.47;0.35;;;22.80;99.90;;;;;;5123674;27;20048;-69
2023/09/14 12:25:40;;;;;;;0.00;0.00;;;23.00;99.90;;;;;;5123067;27;20070;-69
2023/09/14 12:28:09;;;;;;;0.35;0.35;;;23.20;99.90;;;;;;5122979;27;20065;-69
2023/09/14 12:30:35;;;;;;;0.00;0.00;;;23.30;99.90;;;;;;5118133;27;20478;-69
2023/09/14 12:33:03;;;;;;;0.00;0.00;;;23.20;99.90;;;;;;5122867;27;20059;-69
2023/09/14 12:35:30;;;;;;;0.00;0.00;;;23.60;99.90;;;;;;5104219;27;20044;-69
2023/09/14 12:38:06;;;;;;;0.00;0.00;;;23.20;99.90;;;;;;5118770;27;20071;-68
2023/09/14 12:40:36;;;;;;;0.00;0.00;;;23.50;99.90;;;;;;5124966;27;20494;-69
2023/09/14 12:43:03;;;;;;;0.10;0.10;;;23.70;99.90;;;;;;5107897;27;20043;-69
2023/09/14 12:45:33;;;;;;;0.05;0.05;;;23.80;99.90;;;;;;5105163;27;20067;-69
2023/09/14 12:48:04;;;;;;;0.00;0.00;;;23.90;99.90;;;;;;5122590;27;20058;-69